<?xml version="1.0" encoding="UTF-8" standalone="no" ?>
<gpx xmlns="http://www.topografix.com/GPX/1/1" xmlns:xsi="http://www.w3.org/2001/XMLSchema-instance" xsi:schemaLocation="http://www.topografix.com/GPX/1/1 http://www.topografix.com/GPX/1/1/gpx.xsd" version="1.1" creator="VisuGPX - https://www.visugpx.com">
  <metadata>
    <name>Cluny - Bergesserin - Cluny</name>
    <desc><![CDATA[Randonnée vacances d'avril à l'ouest de Cluny ]]></desc>
  </metadata>
  <trk>
    <name><![CDATA[8479277-Cluny - Bergesserin]]></name>
    <trkseg>
      <trkpt lat="46.43719" lon="4.65664">
        <ele>265</ele>
        <time>2018-03-28T18:15:33Z</time>
      </trkpt>
      <trkpt lat="46.43728" lon="4.65628">
        <ele>266</ele>
        <time>2018-03-28T18:16:33Z</time>
      </trkpt>
      <trkpt lat="46.43603" lon="4.65559">
        <ele>254</ele>
        <time>2018-03-28T18:17:33Z</time>
      </trkpt>
      <trkpt lat="46.43644" lon="4.65388">
        <ele>257</ele>
        <time>2018-03-28T18:18:33Z</time>
      </trkpt>
      <trkpt lat="46.43461" lon="4.6537">
        <ele>250</ele>
        <time>2018-03-28T18:19:33Z</time>
      </trkpt>
      <trkpt lat="46.43459" lon="4.65343">
        <ele>250</ele>
        <time>2018-03-28T18:20:33Z</time>
      </trkpt>
      <trkpt lat="46.43429" lon="4.65367">
        <ele>251</ele>
        <time>2018-03-28T18:21:33Z</time>
      </trkpt>
      <trkpt lat="46.43373" lon="4.65341">
        <ele>256</ele>
        <time>2018-03-28T18:22:33Z</time>
      </trkpt>
      <trkpt lat="46.43342" lon="4.65195">
        <ele>252</ele>
        <time>2018-03-28T18:23:33Z</time>
      </trkpt>
      <trkpt lat="46.43316" lon="4.6515">
        <ele>252</ele>
        <time>2018-03-28T18:24:33Z</time>
      </trkpt>
      <trkpt lat="46.43245" lon="4.65118">
        <ele>253</ele>
        <time>2018-03-28T18:25:33Z</time>
      </trkpt>
      <trkpt lat="46.43183" lon="4.65056">
        <ele>253</ele>
        <time>2018-03-28T18:26:33Z</time>
      </trkpt>
      <trkpt lat="46.43154" lon="4.65055">
        <ele>254</ele>
        <time>2018-03-28T18:27:33Z</time>
      </trkpt>
      <trkpt lat="46.43129" lon="4.6508">
        <ele>255</ele>
        <time>2018-03-28T18:28:33Z</time>
      </trkpt>
      <trkpt lat="46.4307" lon="4.65193">
        <ele>264</ele>
        <time>2018-03-28T18:29:33Z</time>
      </trkpt>
      <trkpt lat="46.42951" lon="4.65091">
        <ele>262</ele>
        <time>2018-03-28T18:30:33Z</time>
      </trkpt>
      <trkpt lat="46.429" lon="4.6478">
        <ele>258</ele>
        <time>2018-03-28T18:31:33Z</time>
      </trkpt>
      <trkpt lat="46.42933" lon="4.64535">
        <ele>266</ele>
        <time>2018-03-28T18:32:33Z</time>
      </trkpt>
      <trkpt lat="46.42726" lon="4.64493">
        <ele>282</ele>
        <time>2018-03-28T18:33:33Z</time>
      </trkpt>
      <trkpt lat="46.4278" lon="4.64354">
        <ele>290</ele>
        <time>2018-03-28T18:34:33Z</time>
      </trkpt>
      <trkpt lat="46.42779" lon="4.64255">
        <ele>298</ele>
        <time>2018-03-28T18:35:33Z</time>
      </trkpt>
      <trkpt lat="46.42795" lon="4.64139">
        <ele>307</ele>
        <time>2018-03-28T18:36:33Z</time>
      </trkpt>
      <trkpt lat="46.42779" lon="4.64008">
        <ele>314</ele>
        <time>2018-03-28T18:37:33Z</time>
      </trkpt>
      <trkpt lat="46.4278" lon="4.6394">
        <ele>316</ele>
        <time>2018-03-28T18:38:33Z</time>
      </trkpt>
      <trkpt lat="46.42811" lon="4.638">
        <ele>320</ele>
        <time>2018-03-28T18:39:33Z</time>
      </trkpt>
      <trkpt lat="46.42809" lon="4.63723">
        <ele>323</ele>
        <time>2018-03-28T18:40:33Z</time>
      </trkpt>
      <trkpt lat="46.42807" lon="4.6348">
        <ele>329</ele>
        <time>2018-03-28T18:41:33Z</time>
      </trkpt>
      <trkpt lat="46.42819" lon="4.63392">
        <ele>329</ele>
        <time>2018-03-28T18:42:33Z</time>
      </trkpt>
      <trkpt lat="46.42856" lon="4.63302">
        <ele>328</ele>
        <time>2018-03-28T18:43:33Z</time>
      </trkpt>
      <trkpt lat="46.42916" lon="4.63279">
        <ele>333</ele>
        <time>2018-03-28T18:44:33Z</time>
      </trkpt>
      <trkpt lat="46.42965" lon="4.63341">
        <ele>337</ele>
        <time>2018-03-28T18:45:33Z</time>
      </trkpt>
      <trkpt lat="46.43087" lon="4.6342">
        <ele>343</ele>
        <time>2018-03-28T18:46:33Z</time>
      </trkpt>
      <trkpt lat="46.43138" lon="4.6347">
        <ele>350</ele>
        <time>2018-03-28T18:47:33Z</time>
      </trkpt>
      <trkpt lat="46.43422" lon="4.63577">
        <ele>333</ele>
        <time>2018-03-28T18:48:33Z</time>
      </trkpt>
      <trkpt lat="46.43425" lon="4.63472">
        <ele>333</ele>
        <time>2018-03-28T18:49:33Z</time>
      </trkpt>
      <trkpt lat="46.43409" lon="4.63418">
        <ele>337</ele>
        <time>2018-03-28T18:50:33Z</time>
      </trkpt>
      <trkpt lat="46.43443" lon="4.63246">
        <ele>344</ele>
        <time>2018-03-28T18:51:33Z</time>
      </trkpt>
      <trkpt lat="46.43501" lon="4.63126">
        <ele>341</ele>
        <time>2018-03-28T18:52:33Z</time>
      </trkpt>
      <trkpt lat="46.43505" lon="4.62985">
        <ele>339</ele>
        <time>2018-03-28T18:53:33Z</time>
      </trkpt>
      <trkpt lat="46.4356" lon="4.62862">
        <ele>347</ele>
        <time>2018-03-28T18:54:33Z</time>
      </trkpt>
      <trkpt lat="46.43578" lon="4.62716">
        <ele>364</ele>
        <time>2018-03-28T18:55:33Z</time>
      </trkpt>
      <trkpt lat="46.43616" lon="4.6262">
        <ele>369</ele>
        <time>2018-03-28T18:56:33Z</time>
      </trkpt>
      <trkpt lat="46.43632" lon="4.62532">
        <ele>377</ele>
        <time>2018-03-28T18:57:33Z</time>
      </trkpt>
      <trkpt lat="46.43615" lon="4.62335">
        <ele>404</ele>
        <time>2018-03-28T18:58:33Z</time>
      </trkpt>
      <trkpt lat="46.43545" lon="4.62161">
        <ele>421</ele>
        <time>2018-03-28T18:59:33Z</time>
      </trkpt>
      <trkpt lat="46.43538" lon="4.62021">
        <ele>432</ele>
        <time>2018-03-28T19:00:33Z</time>
      </trkpt>
      <trkpt lat="46.43561" lon="4.61929">
        <ele>435</ele>
        <time>2018-03-28T19:01:33Z</time>
      </trkpt>
      <trkpt lat="46.43518" lon="4.61723">
        <ele>444</ele>
        <time>2018-03-28T19:02:33Z</time>
      </trkpt>
      <trkpt lat="46.43511" lon="4.61517">
        <ele>452</ele>
        <time>2018-03-28T19:03:33Z</time>
      </trkpt>
      <trkpt lat="46.43527" lon="4.61356">
        <ele>465</ele>
        <time>2018-03-28T19:04:33Z</time>
      </trkpt>
      <trkpt lat="46.43493" lon="4.613">
        <ele>462</ele>
        <time>2018-03-28T19:05:33Z</time>
      </trkpt>
      <trkpt lat="46.43507" lon="4.61247">
        <ele>470</ele>
        <time>2018-03-28T19:06:33Z</time>
      </trkpt>
      <trkpt lat="46.43521" lon="4.61187">
        <ele>478</ele>
        <time>2018-03-28T19:07:33Z</time>
      </trkpt>
      <trkpt lat="46.43502" lon="4.61071">
        <ele>484</ele>
        <time>2018-03-28T19:08:33Z</time>
      </trkpt>
      <trkpt lat="46.43483" lon="4.60925">
        <ele>493</ele>
        <time>2018-03-28T19:09:33Z</time>
      </trkpt>
      <trkpt lat="46.43499" lon="4.60882">
        <ele>500</ele>
        <time>2018-03-28T19:10:33Z</time>
      </trkpt>
      <trkpt lat="46.4362" lon="4.61021">
        <ele>511</ele>
        <time>2018-03-28T19:11:33Z</time>
      </trkpt>
      <trkpt lat="46.43671" lon="4.61131">
        <ele>516</ele>
        <time>2018-03-28T19:12:33Z</time>
      </trkpt>
      <trkpt lat="46.43906" lon="4.61212">
        <ele>542</ele>
        <time>2018-03-28T19:13:33Z</time>
      </trkpt>
      <trkpt lat="46.4402" lon="4.61335">
        <ele>544</ele>
        <time>2018-03-28T19:14:33Z</time>
      </trkpt>
      <trkpt lat="46.44165" lon="4.61414">
        <ele>524</ele>
        <time>2018-03-28T19:15:33Z</time>
      </trkpt>
      <trkpt lat="46.44228" lon="4.61491">
        <ele>510</ele>
        <time>2018-03-28T19:16:33Z</time>
      </trkpt>
      <trkpt lat="46.44299" lon="4.61472">
        <ele>500</ele>
        <time>2018-03-28T19:17:33Z</time>
      </trkpt>
      <trkpt lat="46.44437" lon="4.61543">
        <ele>488</ele>
        <time>2018-03-28T19:18:33Z</time>
      </trkpt>
      <trkpt lat="46.44497" lon="4.61631">
        <ele>487</ele>
        <time>2018-03-28T19:19:33Z</time>
      </trkpt>
      <trkpt lat="46.44568" lon="4.61669">
        <ele>487</ele>
        <time>2018-03-28T19:20:33Z</time>
      </trkpt>
      <trkpt lat="46.44621" lon="4.61324">
        <ele>474</ele>
        <time>2018-03-28T19:21:33Z</time>
      </trkpt>
      <trkpt lat="46.44586" lon="4.61156">
        <ele>459</ele>
        <time>2018-03-28T19:22:33Z</time>
      </trkpt>
      <trkpt lat="46.44605" lon="4.61096">
        <ele>456</ele>
        <time>2018-03-28T19:23:33Z</time>
      </trkpt>
      <trkpt lat="46.44669" lon="4.61008">
        <ele>448</ele>
        <time>2018-03-28T19:24:33Z</time>
      </trkpt>
      <trkpt lat="46.4478" lon="4.60777">
        <ele>396</ele>
        <time>2018-03-28T19:25:33Z</time>
      </trkpt>
      <trkpt lat="46.44684" lon="4.60755">
        <ele>396</ele>
        <time>2018-03-28T19:26:33Z</time>
      </trkpt>
      <trkpt lat="46.44599" lon="4.60721">
        <ele>392</ele>
        <time>2018-03-28T19:27:33Z</time>
      </trkpt>
      <trkpt lat="46.4461" lon="4.60663">
        <ele>386</ele>
        <time>2018-03-28T19:28:33Z</time>
      </trkpt>
      <trkpt lat="46.44604" lon="4.60575">
        <ele>371</ele>
        <time>2018-03-28T19:29:33Z</time>
      </trkpt>
      <trkpt lat="46.44613" lon="4.60493">
        <ele>362</ele>
        <time>2018-03-28T19:30:33Z</time>
      </trkpt>
      <trkpt lat="46.4458" lon="4.60472">
        <ele>363</ele>
        <time>2018-03-28T19:31:33Z</time>
      </trkpt>
      <trkpt lat="46.44466" lon="4.60217">
        <ele>346</ele>
        <time>2018-03-28T19:32:33Z</time>
      </trkpt>
      <trkpt lat="46.44407" lon="4.60217">
        <ele>346</ele>
        <time>2018-03-28T19:33:33Z</time>
      </trkpt>
      <trkpt lat="46.44312" lon="4.60178">
        <ele>346</ele>
        <time>2018-03-28T19:34:33Z</time>
      </trkpt>
      <trkpt lat="46.44212" lon="4.60161">
        <ele>354</ele>
        <time>2018-03-28T19:35:33Z</time>
      </trkpt>
      <trkpt lat="46.44181" lon="4.60066">
        <ele>352</ele>
        <time>2018-03-28T19:36:33Z</time>
      </trkpt>
      <trkpt lat="46.44111" lon="4.59929">
        <ele>369</ele>
        <time>2018-03-28T19:37:33Z</time>
      </trkpt>
      <trkpt lat="46.44083" lon="4.59912">
        <ele>377</ele>
        <time>2018-03-28T19:38:33Z</time>
      </trkpt>
      <trkpt lat="46.44033" lon="4.59805">
        <ele>389</ele>
        <time>2018-03-28T19:39:33Z</time>
      </trkpt>
      <trkpt lat="46.43996" lon="4.59777">
        <ele>397</ele>
        <time>2018-03-28T19:40:33Z</time>
      </trkpt>
      <trkpt lat="46.43964" lon="4.59717">
        <ele>401</ele>
        <time>2018-03-28T19:41:33Z</time>
      </trkpt>
      <trkpt lat="46.43916" lon="4.59695">
        <ele>409</ele>
        <time>2018-03-28T19:42:33Z</time>
      </trkpt>
      <trkpt lat="46.43869" lon="4.5962">
        <ele>417</ele>
        <time>2018-03-28T19:43:33Z</time>
      </trkpt>
      <trkpt lat="46.43807" lon="4.59551">
        <ele>426</ele>
        <time>2018-03-28T19:44:33Z</time>
      </trkpt>
      <trkpt lat="46.43758" lon="4.59459">
        <ele>430</ele>
        <time>2018-03-28T19:45:33Z</time>
      </trkpt>
      <trkpt lat="46.43764" lon="4.59414">
        <ele>431</ele>
        <time>2018-03-28T19:46:33Z</time>
      </trkpt>
      <trkpt lat="46.43811" lon="4.59378">
        <ele>432</ele>
        <time>2018-03-28T19:47:33Z</time>
      </trkpt>
      <trkpt lat="46.43965" lon="4.59335">
        <ele>423</ele>
        <time>2018-03-28T19:48:33Z</time>
      </trkpt>
      <trkpt lat="46.44039" lon="4.59266">
        <ele>424</ele>
        <time>2018-03-28T19:49:33Z</time>
      </trkpt>
      <trkpt lat="46.44074" lon="4.5918">
        <ele>430</ele>
        <time>2018-03-28T19:50:33Z</time>
      </trkpt>
      <trkpt lat="46.44048" lon="4.59148">
        <ele>435</ele>
        <time>2018-03-28T19:51:33Z</time>
      </trkpt>
      <trkpt lat="46.44095" lon="4.5903">
        <ele>437</ele>
        <time>2018-03-28T19:52:33Z</time>
      </trkpt>
      <trkpt lat="46.44101" lon="4.58979">
        <ele>439</ele>
        <time>2018-03-28T19:53:33Z</time>
      </trkpt>
      <trkpt lat="46.4412" lon="4.58933">
        <ele>438</ele>
        <time>2018-03-28T19:54:33Z</time>
      </trkpt>
      <trkpt lat="46.44132" lon="4.58614">
        <ele>441</ele>
        <time>2018-03-28T19:55:33Z</time>
      </trkpt>
      <trkpt lat="46.44085" lon="4.58434">
        <ele>447</ele>
        <time>2018-03-28T19:56:33Z</time>
      </trkpt>
      <trkpt lat="46.44083" lon="4.58388">
        <ele>445</ele>
        <time>2018-03-28T19:57:33Z</time>
      </trkpt>
      <trkpt lat="46.44107" lon="4.58215">
        <ele>439</ele>
        <time>2018-03-28T19:58:33Z</time>
      </trkpt>
      <trkpt lat="46.44222" lon="4.58217">
        <ele>439</ele>
        <time>2018-03-28T19:59:33Z</time>
      </trkpt>
      <trkpt lat="46.44453" lon="4.58094">
        <ele>437</ele>
        <time>2018-03-28T20:00:33Z</time>
      </trkpt>
      <trkpt lat="46.44542" lon="4.58086">
        <ele>432</ele>
        <time>2018-03-28T20:01:33Z</time>
      </trkpt>
      <trkpt lat="46.44567" lon="4.58026">
        <ele>434</ele>
        <time>2018-03-28T20:02:33Z</time>
      </trkpt>
      <trkpt lat="46.44497" lon="4.57888">
        <ele>431</ele>
        <time>2018-03-28T20:03:33Z</time>
      </trkpt>
      <trkpt lat="46.44443" lon="4.57846">
        <ele>437</ele>
        <time>2018-03-28T20:04:33Z</time>
      </trkpt>
      <trkpt lat="46.44379" lon="4.57755">
        <ele>437</ele>
        <time>2018-03-28T20:05:33Z</time>
      </trkpt>
      <trkpt lat="46.44367" lon="4.5767">
        <ele>428</ele>
        <time>2018-03-28T20:06:33Z</time>
      </trkpt>
      <trkpt lat="46.44333" lon="4.57558">
        <ele>422</ele>
        <time>2018-03-28T20:07:33Z</time>
      </trkpt>
      <trkpt lat="46.44412" lon="4.57386">
        <ele>392</ele>
        <time>2018-03-28T20:08:33Z</time>
      </trkpt>
      <trkpt lat="46.44434" lon="4.57316">
        <ele>387</ele>
        <time>2018-03-28T20:09:33Z</time>
      </trkpt>
      <trkpt lat="46.44383" lon="4.57107">
        <ele>375</ele>
        <time>2018-03-28T20:10:33Z</time>
      </trkpt>
      <trkpt lat="46.44438" lon="4.57024">
        <ele>368</ele>
        <time>2018-03-28T20:11:33Z</time>
      </trkpt>
      <trkpt lat="46.44363" lon="4.56938">
        <ele>363</ele>
        <time>2018-03-28T20:12:33Z</time>
      </trkpt>
      <trkpt lat="46.44336" lon="4.56876">
        <ele>360</ele>
        <time>2018-03-28T20:13:33Z</time>
      </trkpt>
      <trkpt lat="46.44197" lon="4.56689">
        <ele>351</ele>
        <time>2018-03-28T20:14:33Z</time>
      </trkpt>
      <trkpt lat="46.44163" lon="4.56605">
        <ele>349</ele>
        <time>2018-03-28T20:15:33Z</time>
      </trkpt>
      <trkpt lat="46.44162" lon="4.5641">
        <ele>354</ele>
        <time>2018-03-28T20:16:33Z</time>
      </trkpt>
      <trkpt lat="46.44135" lon="4.56305">
        <ele>348</ele>
        <time>2018-03-28T20:17:33Z</time>
      </trkpt>
      <trkpt lat="46.44234" lon="4.55908">
        <ele>333</ele>
        <time>2018-03-28T20:18:33Z</time>
      </trkpt>
      <trkpt lat="46.44236" lon="4.55822">
        <ele>325</ele>
        <time>2018-03-28T20:19:33Z</time>
      </trkpt>
      <trkpt lat="46.44253" lon="4.55756">
        <ele>322</ele>
        <time>2018-03-28T20:20:33Z</time>
      </trkpt>
      <trkpt lat="46.44267" lon="4.55571">
        <ele>310</ele>
        <time>2018-03-28T20:21:33Z</time>
      </trkpt>
      <trkpt lat="46.44295" lon="4.55511">
        <ele>310</ele>
        <time>2018-03-28T20:22:33Z</time>
      </trkpt>
      <trkpt lat="46.4425" lon="4.55391">
        <ele>306</ele>
        <time>2018-03-28T20:23:33Z</time>
      </trkpt>
      <trkpt lat="46.44215" lon="4.55387">
        <ele>308</ele>
        <time>2018-03-28T20:24:33Z</time>
      </trkpt>
      <trkpt lat="46.44187" lon="4.55402">
        <ele>308</ele>
        <time>2018-03-28T20:25:33Z</time>
      </trkpt>
      <trkpt lat="46.44176" lon="4.55464">
        <ele>311</ele>
        <time>2018-03-28T20:26:33Z</time>
      </trkpt>
      <trkpt lat="46.44132" lon="4.55539">
        <ele>317</ele>
        <time>2018-03-28T20:27:33Z</time>
      </trkpt>
      <trkpt lat="46.44108" lon="4.55535">
        <ele>321</ele>
        <time>2018-03-28T20:28:33Z</time>
      </trkpt>
      <trkpt lat="46.43966" lon="4.557">
        <ele>334</ele>
        <time>2018-03-28T20:29:33Z</time>
      </trkpt>
      <trkpt lat="46.43907" lon="4.55734">
        <ele>337</ele>
        <time>2018-03-28T20:30:33Z</time>
      </trkpt>
      <trkpt lat="46.4386" lon="4.55723">
        <ele>338</ele>
        <time>2018-03-28T20:31:33Z</time>
      </trkpt>
      <trkpt lat="46.43792" lon="4.55764">
        <ele>345</ele>
        <time>2018-03-28T20:32:33Z</time>
      </trkpt>
      <trkpt lat="46.43694" lon="4.5579">
        <ele>354</ele>
        <time>2018-03-28T20:33:33Z</time>
      </trkpt>
      <trkpt lat="46.43699" lon="4.55919">
        <ele>357</ele>
        <time>2018-03-28T20:34:33Z</time>
      </trkpt>
      <trkpt lat="46.43609" lon="4.55923">
        <ele>361</ele>
        <time>2018-03-28T20:35:33Z</time>
      </trkpt>
      <trkpt lat="46.43567" lon="4.55949">
        <ele>363</ele>
        <time>2018-03-28T20:36:33Z</time>
      </trkpt>
      <trkpt lat="46.43514" lon="4.55927">
        <ele>367</ele>
        <time>2018-03-28T20:37:33Z</time>
      </trkpt>
      <trkpt lat="46.43433" lon="4.5579">
        <ele>366</ele>
        <time>2018-03-28T20:38:33Z</time>
      </trkpt>
      <trkpt lat="46.43369" lon="4.55783">
        <ele>367</ele>
        <time>2018-03-28T20:39:33Z</time>
      </trkpt>
      <trkpt lat="46.43271" lon="4.55775">
        <ele>375</ele>
        <time>2018-03-28T20:40:33Z</time>
      </trkpt>
      <trkpt lat="46.43236" lon="4.55805">
        <ele>380</ele>
        <time>2018-03-28T20:41:33Z</time>
      </trkpt>
      <trkpt lat="46.43184" lon="4.55856">
        <ele>385</ele>
        <time>2018-03-28T20:42:33Z</time>
      </trkpt>
      <trkpt lat="46.43176" lon="4.5589">
        <ele>386</ele>
        <time>2018-03-28T20:43:33Z</time>
      </trkpt>
      <trkpt lat="46.43118" lon="4.55921">
        <ele>394</ele>
        <time>2018-03-28T20:44:33Z</time>
      </trkpt>
      <trkpt lat="46.43051" lon="4.55906">
        <ele>408</ele>
        <time>2018-03-28T20:45:33Z</time>
      </trkpt>
      <trkpt lat="46.43025" lon="4.55842">
        <ele>415</ele>
        <time>2018-03-28T20:46:33Z</time>
      </trkpt>
      <trkpt lat="46.43026" lon="4.55793">
        <ele>416</ele>
        <time>2018-03-28T20:47:33Z</time>
      </trkpt>
      <trkpt lat="46.42942" lon="4.55709">
        <ele>433</ele>
        <time>2018-03-28T20:48:33Z</time>
      </trkpt>
      <trkpt lat="46.42893" lon="4.55689">
        <ele>443</ele>
        <time>2018-03-28T20:49:33Z</time>
      </trkpt>
      <trkpt lat="46.42856" lon="4.55778">
        <ele>452</ele>
        <time>2018-03-28T20:50:33Z</time>
      </trkpt>
      <trkpt lat="46.4281" lon="4.55827">
        <ele>459</ele>
        <time>2018-03-28T20:51:33Z</time>
      </trkpt>
      <trkpt lat="46.42805" lon="4.55872">
        <ele>457</ele>
        <time>2018-03-28T20:52:33Z</time>
      </trkpt>
      <trkpt lat="46.42777" lon="4.55908">
        <ele>459</ele>
        <time>2018-03-28T20:53:33Z</time>
      </trkpt>
      <trkpt lat="46.42738" lon="4.55939">
        <ele>462</ele>
        <time>2018-03-28T20:54:33Z</time>
      </trkpt>
      <trkpt lat="46.4271" lon="4.55985">
        <ele>461</ele>
        <time>2018-03-28T20:55:33Z</time>
      </trkpt>
      <trkpt lat="46.42555" lon="4.56161">
        <ele>462</ele>
        <time>2018-03-28T20:56:33Z</time>
      </trkpt>
      <trkpt lat="46.42536" lon="4.56199">
        <ele>459</ele>
        <time>2018-03-28T20:57:33Z</time>
      </trkpt>
      <trkpt lat="46.42488" lon="4.56225">
        <ele>460</ele>
        <time>2018-03-28T20:58:33Z</time>
      </trkpt>
      <trkpt lat="46.42451" lon="4.56217">
        <ele>465</ele>
        <time>2018-03-28T20:59:33Z</time>
      </trkpt>
      <trkpt lat="46.4239" lon="4.56255">
        <ele>466</ele>
        <time>2018-03-28T21:00:33Z</time>
      </trkpt>
      <trkpt lat="46.42319" lon="4.56253">
        <ele>478</ele>
        <time>2018-03-28T21:01:33Z</time>
      </trkpt>
      <trkpt lat="46.42289" lon="4.56299">
        <ele>480</ele>
        <time>2018-03-28T21:02:33Z</time>
      </trkpt>
      <trkpt lat="46.42221" lon="4.56322">
        <ele>488</ele>
        <time>2018-03-28T21:03:33Z</time>
      </trkpt>
      <trkpt lat="46.42165" lon="4.56365">
        <ele>495</ele>
        <time>2018-03-28T21:04:33Z</time>
      </trkpt>
      <trkpt lat="46.42126" lon="4.56355">
        <ele>500</ele>
        <time>2018-03-28T21:05:33Z</time>
      </trkpt>
      <trkpt lat="46.42085" lon="4.56403">
        <ele>504</ele>
        <time>2018-03-28T21:06:33Z</time>
      </trkpt>
      <trkpt lat="46.41992" lon="4.56518">
        <ele>518</ele>
        <time>2018-03-28T21:07:33Z</time>
      </trkpt>
      <trkpt lat="46.41865" lon="4.5663">
        <ele>539</ele>
        <time>2018-03-28T21:08:33Z</time>
      </trkpt>
      <trkpt lat="46.41716" lon="4.56447">
        <ele>551</ele>
        <time>2018-03-28T21:09:33Z</time>
      </trkpt>
      <trkpt lat="46.4164" lon="4.56406">
        <ele>557</ele>
        <time>2018-03-28T21:10:33Z</time>
      </trkpt>
      <trkpt lat="46.41517" lon="4.56245">
        <ele>555</ele>
        <time>2018-03-28T21:11:33Z</time>
      </trkpt>
      <trkpt lat="46.41487" lon="4.56158">
        <ele>551</ele>
        <time>2018-03-28T21:12:33Z</time>
      </trkpt>
      <trkpt lat="46.41471" lon="4.56135">
        <ele>552</ele>
        <time>2018-03-28T21:13:33Z</time>
      </trkpt>
      <trkpt lat="46.41267" lon="4.56049">
        <ele>562</ele>
        <time>2018-03-28T21:14:33Z</time>
      </trkpt>
      <trkpt lat="46.40958" lon="4.55844">
        <ele>559</ele>
        <time>2018-03-28T21:15:33Z</time>
      </trkpt>
      <trkpt lat="46.40857" lon="4.55796">
        <ele>557</ele>
        <time>2018-03-28T21:16:33Z</time>
      </trkpt>
      <trkpt lat="46.40745" lon="4.55786">
        <ele>550</ele>
        <time>2018-03-28T21:17:33Z</time>
      </trkpt>
      <trkpt lat="46.40611" lon="4.55892">
        <ele>535</ele>
        <time>2018-03-28T21:18:33Z</time>
      </trkpt>
      <trkpt lat="46.40551" lon="4.55895">
        <ele>531</ele>
        <time>2018-03-28T21:19:33Z</time>
      </trkpt>
      <trkpt lat="46.40437" lon="4.55908">
        <ele>510</ele>
        <time>2018-03-28T21:20:33Z</time>
      </trkpt>
      <trkpt lat="46.40403" lon="4.55939">
        <ele>499</ele>
        <time>2018-03-28T21:21:33Z</time>
      </trkpt>
      <trkpt lat="46.40359" lon="4.55952">
        <ele>491</ele>
        <time>2018-03-28T21:22:33Z</time>
      </trkpt>
      <trkpt lat="46.40513" lon="4.56166">
        <ele>476</ele>
        <time>2018-03-28T21:23:33Z</time>
      </trkpt>
      <trkpt lat="46.40585" lon="4.56174">
        <ele>477</ele>
        <time>2018-03-28T21:24:33Z</time>
      </trkpt>
      <trkpt lat="46.40611" lon="4.5623">
        <ele>472</ele>
        <time>2018-03-28T21:25:33Z</time>
      </trkpt>
      <trkpt lat="46.40591" lon="4.56289">
        <ele>466</ele>
        <time>2018-03-28T21:26:33Z</time>
      </trkpt>
      <trkpt lat="46.40614" lon="4.56355">
        <ele>468</ele>
        <time>2018-03-28T21:27:33Z</time>
      </trkpt>
      <trkpt lat="46.40609" lon="4.56555">
        <ele>466</ele>
        <time>2018-03-28T21:28:33Z</time>
      </trkpt>
      <trkpt lat="46.40605" lon="4.56887">
        <ele>461</ele>
        <time>2018-03-28T21:29:33Z</time>
      </trkpt>
      <trkpt lat="46.40639" lon="4.56956">
        <ele>462</ele>
        <time>2018-03-28T21:30:33Z</time>
      </trkpt>
      <trkpt lat="46.40686" lon="4.56968">
        <ele>461</ele>
        <time>2018-03-28T21:31:33Z</time>
      </trkpt>
      <trkpt lat="46.4075" lon="4.57053">
        <ele>456</ele>
        <time>2018-03-28T21:32:33Z</time>
      </trkpt>
      <trkpt lat="46.40778" lon="4.57058">
        <ele>453</ele>
        <time>2018-03-28T21:33:33Z</time>
      </trkpt>
      <trkpt lat="46.4082" lon="4.56975">
        <ele>462</ele>
        <time>2018-03-28T21:34:33Z</time>
      </trkpt>
      <trkpt lat="46.40882" lon="4.5698">
        <ele>462</ele>
        <time>2018-03-28T21:35:33Z</time>
      </trkpt>
      <trkpt lat="46.40889" lon="4.57079">
        <ele>450</ele>
        <time>2018-03-28T21:36:33Z</time>
      </trkpt>
      <trkpt lat="46.40984" lon="4.57205">
        <ele>448</ele>
        <time>2018-03-28T21:37:33Z</time>
      </trkpt>
      <trkpt lat="46.40991" lon="4.5725">
        <ele>444</ele>
        <time>2018-03-28T21:38:33Z</time>
      </trkpt>
      <trkpt lat="46.41026" lon="4.57283">
        <ele>442</ele>
        <time>2018-03-28T21:39:33Z</time>
      </trkpt>
      <trkpt lat="46.41061" lon="4.57342">
        <ele>436</ele>
        <time>2018-03-28T21:40:33Z</time>
      </trkpt>
      <trkpt lat="46.4113" lon="4.57317">
        <ele>441</ele>
        <time>2018-03-28T21:41:33Z</time>
      </trkpt>
      <trkpt lat="46.41147" lon="4.57342">
        <ele>437</ele>
        <time>2018-03-28T21:42:33Z</time>
      </trkpt>
      <trkpt lat="46.41149" lon="4.57393">
        <ele>432</ele>
        <time>2018-03-28T21:43:33Z</time>
      </trkpt>
      <trkpt lat="46.41179" lon="4.57397">
        <ele>433</ele>
        <time>2018-03-28T21:44:33Z</time>
      </trkpt>
      <trkpt lat="46.41192" lon="4.57367">
        <ele>435</ele>
        <time>2018-03-28T21:45:33Z</time>
      </trkpt>
      <trkpt lat="46.41213" lon="4.57357">
        <ele>436</ele>
        <time>2018-03-28T21:46:33Z</time>
      </trkpt>
      <trkpt lat="46.41228" lon="4.57394">
        <ele>433</ele>
        <time>2018-03-28T21:47:33Z</time>
      </trkpt>
      <trkpt lat="46.41232" lon="4.57443">
        <ele>430</ele>
        <time>2018-03-28T21:48:33Z</time>
      </trkpt>
      <trkpt lat="46.41201" lon="4.57569">
        <ele>418</ele>
        <time>2018-03-28T21:49:33Z</time>
      </trkpt>
      <trkpt lat="46.41206" lon="4.57599">
        <ele>414</ele>
        <time>2018-03-28T21:50:33Z</time>
      </trkpt>
      <trkpt lat="46.41228" lon="4.5761">
        <ele>412</ele>
        <time>2018-03-28T21:51:33Z</time>
      </trkpt>
      <trkpt lat="46.41274" lon="4.57611">
        <ele>413</ele>
        <time>2018-03-28T21:52:33Z</time>
      </trkpt>
      <trkpt lat="46.41288" lon="4.5767">
        <ele>407</ele>
        <time>2018-03-28T21:53:33Z</time>
      </trkpt>
      <trkpt lat="46.41331" lon="4.57768">
        <ele>400</ele>
        <time>2018-03-28T21:54:33Z</time>
      </trkpt>
      <trkpt lat="46.41356" lon="4.5788">
        <ele>392</ele>
        <time>2018-03-28T21:55:33Z</time>
      </trkpt>
      <trkpt lat="46.41449" lon="4.58073">
        <ele>390</ele>
        <time>2018-03-28T21:56:33Z</time>
      </trkpt>
      <trkpt lat="46.41471" lon="4.58223">
        <ele>379</ele>
        <time>2018-03-28T21:57:33Z</time>
      </trkpt>
      <trkpt lat="46.41437" lon="4.5826">
        <ele>381</ele>
        <time>2018-03-28T21:58:33Z</time>
      </trkpt>
      <trkpt lat="46.41417" lon="4.58309">
        <ele>381</ele>
        <time>2018-03-28T21:59:33Z</time>
      </trkpt>
      <trkpt lat="46.41403" lon="4.58416">
        <ele>374</ele>
        <time>2018-03-28T22:00:33Z</time>
      </trkpt>
      <trkpt lat="46.41421" lon="4.58485">
        <ele>369</ele>
        <time>2018-03-28T22:01:33Z</time>
      </trkpt>
      <trkpt lat="46.41425" lon="4.58667">
        <ele>365</ele>
        <time>2018-03-28T22:02:33Z</time>
      </trkpt>
      <trkpt lat="46.4139" lon="4.58773">
        <ele>360</ele>
        <time>2018-03-28T22:03:33Z</time>
      </trkpt>
      <trkpt lat="46.41313" lon="4.58895">
        <ele>353</ele>
        <time>2018-03-28T22:04:33Z</time>
      </trkpt>
      <trkpt lat="46.41301" lon="4.58974">
        <ele>349</ele>
        <time>2018-03-28T22:05:33Z</time>
      </trkpt>
      <trkpt lat="46.41285" lon="4.59019">
        <ele>348</ele>
        <time>2018-03-28T22:06:33Z</time>
      </trkpt>
      <trkpt lat="46.41317" lon="4.59027">
        <ele>347</ele>
        <time>2018-03-28T22:07:33Z</time>
      </trkpt>
      <trkpt lat="46.41357" lon="4.58985">
        <ele>345</ele>
        <time>2018-03-28T22:08:33Z</time>
      </trkpt>
      <trkpt lat="46.41464" lon="4.58916">
        <ele>342</ele>
        <time>2018-03-28T22:09:33Z</time>
      </trkpt>
      <trkpt lat="46.41581" lon="4.58906">
        <ele>337</ele>
        <time>2018-03-28T22:10:33Z</time>
      </trkpt>
      <trkpt lat="46.41594" lon="4.58996">
        <ele>337</ele>
        <time>2018-03-28T22:11:33Z</time>
      </trkpt>
      <trkpt lat="46.41597" lon="4.59232">
        <ele>338</ele>
        <time>2018-03-28T22:12:33Z</time>
      </trkpt>
      <trkpt lat="46.41633" lon="4.59371">
        <ele>339</ele>
        <time>2018-03-28T22:13:33Z</time>
      </trkpt>
      <trkpt lat="46.41789" lon="4.59498">
        <ele>348</ele>
        <time>2018-03-28T22:14:33Z</time>
      </trkpt>
      <trkpt lat="46.41828" lon="4.59564">
        <ele>345</ele>
        <time>2018-03-28T22:15:33Z</time>
      </trkpt>
      <trkpt lat="46.41923" lon="4.59603">
        <ele>345</ele>
        <time>2018-03-28T22:16:33Z</time>
      </trkpt>
      <trkpt lat="46.42008" lon="4.59581">
        <ele>346</ele>
        <time>2018-03-28T22:17:33Z</time>
      </trkpt>
      <trkpt lat="46.42173" lon="4.59674">
        <ele>355</ele>
        <time>2018-03-28T22:18:33Z</time>
      </trkpt>
      <trkpt lat="46.4222" lon="4.59637">
        <ele>360</ele>
        <time>2018-03-28T22:19:33Z</time>
      </trkpt>
      <trkpt lat="46.42316" lon="4.59682">
        <ele>363</ele>
        <time>2018-03-28T22:20:33Z</time>
      </trkpt>
      <trkpt lat="46.42436" lon="4.59736">
        <ele>360</ele>
        <time>2018-03-28T22:21:33Z</time>
      </trkpt>
      <trkpt lat="46.42498" lon="4.59734">
        <ele>358</ele>
        <time>2018-03-28T22:22:33Z</time>
      </trkpt>
      <trkpt lat="46.42564" lon="4.59785">
        <ele>355</ele>
        <time>2018-03-28T22:23:33Z</time>
      </trkpt>
      <trkpt lat="46.426" lon="4.59886">
        <ele>351</ele>
        <time>2018-03-28T22:24:33Z</time>
      </trkpt>
      <trkpt lat="46.42653" lon="4.59888">
        <ele>349</ele>
        <time>2018-03-28T22:25:33Z</time>
      </trkpt>
      <trkpt lat="46.42669" lon="4.59923">
        <ele>346</ele>
        <time>2018-03-28T22:26:33Z</time>
      </trkpt>
      <trkpt lat="46.42681" lon="4.60073">
        <ele>342</ele>
        <time>2018-03-28T22:27:33Z</time>
      </trkpt>
      <trkpt lat="46.42704" lon="4.60111">
        <ele>344</ele>
        <time>2018-03-28T22:28:33Z</time>
      </trkpt>
      <trkpt lat="46.42825" lon="4.60178">
        <ele>355</ele>
        <time>2018-03-28T22:29:33Z</time>
      </trkpt>
      <trkpt lat="46.42924" lon="4.6032">
        <ele>367</ele>
        <time>2018-03-28T22:30:33Z</time>
      </trkpt>
      <trkpt lat="46.43141" lon="4.60564">
        <ele>400</ele>
        <time>2018-03-28T22:31:33Z</time>
      </trkpt>
      <trkpt lat="46.43193" lon="4.60768">
        <ele>424</ele>
        <time>2018-03-28T22:32:33Z</time>
      </trkpt>
      <trkpt lat="46.43274" lon="4.61008">
        <ele>441</ele>
        <time>2018-03-28T22:33:33Z</time>
      </trkpt>
      <trkpt lat="46.43248" lon="4.61111">
        <ele>434</ele>
        <time>2018-03-28T22:34:33Z</time>
      </trkpt>
      <trkpt lat="46.43178" lon="4.61238">
        <ele>433</ele>
        <time>2018-03-28T22:35:33Z</time>
      </trkpt>
      <trkpt lat="46.43082" lon="4.61341">
        <ele>442</ele>
        <time>2018-03-28T22:36:33Z</time>
      </trkpt>
      <trkpt lat="46.43081" lon="4.61388">
        <ele>443</ele>
        <time>2018-03-28T22:37:33Z</time>
      </trkpt>
      <trkpt lat="46.42919" lon="4.61456">
        <ele>440</ele>
        <time>2018-03-28T22:38:33Z</time>
      </trkpt>
      <trkpt lat="46.42782" lon="4.61573">
        <ele>441</ele>
        <time>2018-03-28T22:39:33Z</time>
      </trkpt>
      <trkpt lat="46.42644" lon="4.61762">
        <ele>437</ele>
        <time>2018-03-28T22:40:33Z</time>
      </trkpt>
      <trkpt lat="46.42595" lon="4.61808">
        <ele>438</ele>
        <time>2018-03-28T22:41:33Z</time>
      </trkpt>
      <trkpt lat="46.42576" lon="4.61911">
        <ele>435</ele>
        <time>2018-03-28T22:42:33Z</time>
      </trkpt>
      <trkpt lat="46.42577" lon="4.61969">
        <ele>431</ele>
        <time>2018-03-28T22:43:33Z</time>
      </trkpt>
      <trkpt lat="46.42545" lon="4.6209">
        <ele>423</ele>
        <time>2018-03-28T22:44:33Z</time>
      </trkpt>
      <trkpt lat="46.42486" lon="4.62193">
        <ele>414</ele>
        <time>2018-03-28T22:45:33Z</time>
      </trkpt>
      <trkpt lat="46.42482" lon="4.62232">
        <ele>407</ele>
        <time>2018-03-28T22:46:33Z</time>
      </trkpt>
      <trkpt lat="46.42459" lon="4.62268">
        <ele>402</ele>
        <time>2018-03-28T22:47:33Z</time>
      </trkpt>
      <trkpt lat="46.42439" lon="4.6235">
        <ele>392</ele>
        <time>2018-03-28T22:48:33Z</time>
      </trkpt>
      <trkpt lat="46.42351" lon="4.62442">
        <ele>378</ele>
        <time>2018-03-28T22:49:33Z</time>
      </trkpt>
      <trkpt lat="46.42331" lon="4.62547">
        <ele>366</ele>
        <time>2018-03-28T22:50:33Z</time>
      </trkpt>
      <trkpt lat="46.42282" lon="4.62648">
        <ele>356</ele>
        <time>2018-03-28T22:51:33Z</time>
      </trkpt>
      <trkpt lat="46.42173" lon="4.62605">
        <ele>355</ele>
        <time>2018-03-28T22:52:33Z</time>
      </trkpt>
      <trkpt lat="46.42026" lon="4.6256">
        <ele>353</ele>
        <time>2018-03-28T22:53:33Z</time>
      </trkpt>
      <trkpt lat="46.41896" lon="4.62556">
        <ele>356</ele>
        <time>2018-03-28T22:54:33Z</time>
      </trkpt>
      <trkpt lat="46.41883" lon="4.62641">
        <ele>355</ele>
        <time>2018-03-28T22:55:33Z</time>
      </trkpt>
      <trkpt lat="46.41877" lon="4.62706">
        <ele>350</ele>
        <time>2018-03-28T22:56:33Z</time>
      </trkpt>
      <trkpt lat="46.41862" lon="4.62753">
        <ele>345</ele>
        <time>2018-03-28T22:57:33Z</time>
      </trkpt>
      <trkpt lat="46.41862" lon="4.62822">
        <ele>339</ele>
        <time>2018-03-28T22:58:33Z</time>
      </trkpt>
      <trkpt lat="46.41813" lon="4.62839">
        <ele>338</ele>
        <time>2018-03-28T22:59:33Z</time>
      </trkpt>
      <trkpt lat="46.41838" lon="4.62935">
        <ele>326</ele>
        <time>2018-03-28T23:00:33Z</time>
      </trkpt>
      <trkpt lat="46.41853" lon="4.63015">
        <ele>318</ele>
        <time>2018-03-28T23:01:33Z</time>
      </trkpt>
      <trkpt lat="46.41825" lon="4.63049">
        <ele>315</ele>
        <time>2018-03-28T23:02:33Z</time>
      </trkpt>
      <trkpt lat="46.4182" lon="4.63096">
        <ele>312</ele>
        <time>2018-03-28T23:03:33Z</time>
      </trkpt>
      <trkpt lat="46.41863" lon="4.63229">
        <ele>313</ele>
        <time>2018-03-28T23:04:33Z</time>
      </trkpt>
      <trkpt lat="46.42025" lon="4.63253">
        <ele>323</ele>
        <time>2018-03-28T23:05:33Z</time>
      </trkpt>
      <trkpt lat="46.42224" lon="4.63631">
        <ele>317</ele>
        <time>2018-03-28T23:06:33Z</time>
      </trkpt>
      <trkpt lat="46.4232" lon="4.63736">
        <ele>315</ele>
        <time>2018-03-28T23:07:33Z</time>
      </trkpt>
      <trkpt lat="46.42334" lon="4.63731">
        <ele>316</ele>
        <time>2018-03-28T23:08:33Z</time>
      </trkpt>
      <trkpt lat="46.42398" lon="4.63789">
        <ele>307</ele>
        <time>2018-03-28T23:09:33Z</time>
      </trkpt>
      <trkpt lat="46.42418" lon="4.63819">
        <ele>303</ele>
        <time>2018-03-28T23:10:33Z</time>
      </trkpt>
      <trkpt lat="46.42502" lon="4.63882">
        <ele>294</ele>
        <time>2018-03-28T23:11:33Z</time>
      </trkpt>
      <trkpt lat="46.42544" lon="4.63978">
        <ele>290</ele>
        <time>2018-03-28T23:12:33Z</time>
      </trkpt>
      <trkpt lat="46.42566" lon="4.64017">
        <ele>289</ele>
        <time>2018-03-28T23:13:33Z</time>
      </trkpt>
      <trkpt lat="46.42541" lon="4.64356">
        <ele>271</ele>
        <time>2018-03-28T23:14:33Z</time>
      </trkpt>
      <trkpt lat="46.42541" lon="4.64461">
        <ele>269</ele>
        <time>2018-03-28T23:15:33Z</time>
      </trkpt>
      <trkpt lat="46.4255" lon="4.64508">
        <ele>270</ele>
        <time>2018-03-28T23:16:33Z</time>
      </trkpt>
      <trkpt lat="46.4256" lon="4.64579">
        <ele>270</ele>
        <time>2018-03-28T23:17:33Z</time>
      </trkpt>
      <trkpt lat="46.42603" lon="4.64721">
        <ele>277</ele>
        <time>2018-03-28T23:18:33Z</time>
      </trkpt>
      <trkpt lat="46.42631" lon="4.64787">
        <ele>278</ele>
        <time>2018-03-28T23:19:33Z</time>
      </trkpt>
      <trkpt lat="46.42672" lon="4.65042">
        <ele>272</ele>
        <time>2018-03-28T23:20:33Z</time>
      </trkpt>
      <trkpt lat="46.42705" lon="4.65096">
        <ele>272</ele>
        <time>2018-03-28T23:21:33Z</time>
      </trkpt>
      <trkpt lat="46.42814" lon="4.65201">
        <ele>276</ele>
        <time>2018-03-28T23:22:33Z</time>
      </trkpt>
      <trkpt lat="46.43081" lon="4.65405">
        <ele>279</ele>
        <time>2018-03-28T23:23:33Z</time>
      </trkpt>
      <trkpt lat="46.4311" lon="4.65495">
        <ele>278</ele>
        <time>2018-03-28T23:24:33Z</time>
      </trkpt>
      <trkpt lat="46.4327" lon="4.6577">
        <ele>253</ele>
        <time>2018-03-28T23:25:33Z</time>
      </trkpt>
      <trkpt lat="46.43363" lon="4.65824">
        <ele>244</ele>
        <time>2018-03-28T23:26:33Z</time>
      </trkpt>
      <trkpt lat="46.43431" lon="4.6574">
        <ele>245</ele>
        <time>2018-03-28T23:27:33Z</time>
      </trkpt>
      <trkpt lat="46.43477" lon="4.65652">
        <ele>248</ele>
        <time>2018-03-28T23:28:33Z</time>
      </trkpt>
      <trkpt lat="46.43607" lon="4.65714">
        <ele>256</ele>
        <time>2018-03-28T23:29:33Z</time>
      </trkpt>
      <trkpt lat="46.43665" lon="4.65778">
        <ele>255</ele>
        <time>2018-03-28T23:30:33Z</time>
      </trkpt>
      <trkpt lat="46.43685" lon="4.6571">
        <ele>260</ele>
        <time>2018-03-28T23:31:33Z</time>
      </trkpt>
      <trkpt lat="46.43702" lon="4.65691">
        <ele>262</ele>
        <time>2018-03-28T23:32:33Z</time>
      </trkpt>
      <trkpt lat="46.43712" lon="4.65676">
        <ele>264</ele>
        <time>2018-03-28T23:33:33Z</time>
      </trkpt>
    </trkseg>
  </trk>
</gpx>